This is the latest recevied weather packets stored in our database for station/object KG4QXL-2. If no packets are shown the sender has not sent any weather packets the latest 10 day(s).
| Time | Temp. | Humidity | Pressure | Rain* | Wind** | Luminosity | Snow |
|---|---|---|---|---|---|---|---|
| 1777190116 | 8.33° C | 92% | 1009.3 hPa | 0 mm | - | 0 W/m² | - |
| 1777187736 | 8.33° C | 92% | 1008.8 hPa | 0 mm | - | 0 W/m² | - |
| 1777186516 | 8.89° C | 94% | 1008.7 hPa | 0 mm | - | 0 W/m² | - |
| 1777183516 | 8.89° C | 95% | 1008.4 hPa | 0 mm | - | 0 W/m² | - |
| 1777181116 | 9.44° C | 95% | 1008.1 hPa | 0 mm | - | 0 W/m² | - |
| 1777179316 | 10° C | 95% | 1007.8 hPa | 0 mm | - | 0 W/m² | - |
| 1777177516 | 10° C | 95% | 1007.6 hPa | 0 mm | - | 0 W/m² | - |
| 1777175115 | 10° C | 95% | 1007.4 hPa | 0 mm | - | 0 W/m² | - |
| 1777172116 | 10.56° C | 95% | 1007.3 hPa | 0 mm | - | 0 W/m² | - |
| 1777170916 | 10.56° C | 95% | 1007.3 hPa | 0 mm | - | 0 W/m² | - |
| 1777164316 | 11.11° C | 94% | 1006.8 hPa | 0 mm | - | 0 W/m² | - |
| 1777162516 | 11.11° C | 94% | 1006.3 hPa | 0 mm | - | 0 W/m² | - |
| 1777156516 | 12.22° C | 94% | 1005.6 hPa | 0 mm | - | 0 W/m² | - |
| 1777149916 | 15.56° C | 79% | 1005.4 hPa | 0 mm | - | 3 W/m² | - |
| 1777147536 | 16.67° C | 76% | 1004.9 hPa | 0 mm | - | 7 W/m² | - |
| 1777146916 | 16.67° C | 77% | 1004.8 hPa | 0 mm | - | 9 W/m² | - |
| 1777145716 | 16.67° C | 76% | 1004.7 hPa | 0 mm | - | 12 W/m² | - |
| 1777144556 | 16.67° C | 77% | 1005 hPa | 0 mm | - | 17 W/m² | - |
| 1777143316 | 16.67° C | 78% | 1005.1 hPa | 0 mm | - | 20 W/m² | - |
| 1777140916 | 16.67° C | 78% | 1005.4 hPa | 0 mm | - | 22 W/m² | - |
| 1777139136 | 16.11° C | 81% | 1005.6 hPa | 0 mm | - | 22 W/m² | - |
| 1777134336 | 15° C | 85% | 1006.1 hPa | 0 mm | - | 16 W/m² | - |
| 1777131316 | 13.89° C | 90% | 1006.1 hPa | 0 mm | - | 10 W/m² | - |
| 1777114536 | 12.78° C | 89% | 1005.1 hPa | 0 mm | - | 0 W/m² | - |
| 1777110316 | 13.33° C | 85% | 1004.3 hPa | 0 mm | - | 0 W/m² | - |
* Rain latest hour (hover to see other rain measurements)
** Current wind speed in m/s (hover to see current wind gust speed)